McGregor, Iowa
Current Conditions -  °F | °C
As of 6:35 PM on Wednesday 22 Oct 2014 (Local Time) from KPDC Reporting Station
Clear Clear  
Wind Chill: 53°   Ceiling: Unl
Heat Index: 53°   Visibility: 10mi
Dew Point: 37°   Wind: 6mph
Humidity: 53%   Direction: 120°ESE
Pressure: 30.18"   Gusts: NA
Location:  43.02°N, 91.18°W
Report Text: KPDC 222335Z AUTO 12005KT 10SM CLR 12/03 A3018 RMK AO2 T01190027
Loading
Personal Weather Stations






























Interactive Weather Map
Tropical Storm Tracking
New forecast layout! Learn more

10-Day Weather Forecast

Advertisements
Track Severe Weather on mobile